Terminal Aerodrome Forecast
Issued by NWS Portland, OR

Home | Current Version | Previous Version | Text Only | Print | Product List | Glossary On
Versions: 1 2 3 4 5 6 7 8 9 10 11 12 13 14 15 16 17 18 19 20 21 22 23 24 25 26 27 28 29 30 31 32 33 34 35 36 37 38 39 40
000
FTUS46 KPQR 222322
TAFSLE
TAF
KSLE 222322Z 2300/2324 23003KT P6SM -SHRA SCT025 BKN060
     FM231000 21003KT 5SM BR VCSH SCT004 SCT030 BKN050
     FM231900 18010KT P6SM -RA BKN025 BKN050=

USA.gov is the U.S. government's official web portal to all federal, state and local government web resources and services.